Time;durP1;ratioP1;P1;durP2;ratioP2;P2;SDS_P1;SDS_P2;PMS_P1;PMS_P2;Temp;Humidity;BMP_temperature;BMP_pressure;BME280_temperature;BME280_humidity;BME280_pressure;Samples;Min_cycle;Max_cycle;Signal;HPM_P1;HPM_P2
2021/11/24 00:01:54;;;;;;;7.83;3.93;;;-2.50;99.90;;;;;;5013489;28;20585;-73
2021/11/24 00:04:19;;;;;;;4.20;3.30;;;-2.50;99.90;;;;;;4995836;28;20427;-72
2021/11/24 00:06:45;;;;;;;5.83;3.67;;;-2.50;99.90;;;;;;5013286;28;20390;-72
2021/11/24 00:09:10;;;;;;;3.93;3.50;;;-2.50;99.90;;;;;;5013643;28;20275;-72
2021/11/24 00:11:36;;;;;;;5.30;3.80;;;-2.60;99.90;;;;;;5013150;28;20202;-72
2021/11/24 00:14:02;;;;;;;8.87;5.07;;;-2.60;99.90;;;;;;5013109;28;20216;-72
2021/11/24 00:16:27;;;;;;;7.27;4.73;;;-2.60;99.90;;;;;;5013186;28;20188;-73
2021/11/24 00:18:53;;;;;;;8.77;4.10;;;-2.60;99.90;;;;;;4995834;28;20662;-72
2021/11/24 00:21:19;;;;;;;4.80;3.97;;;-2.70;99.90;;;;;;5013452;28;20251;-72
2021/11/24 00:23:45;;;;;;;4.20;3.30;;;-2.70;99.90;;;;;;4995270;28;20173;-72
2021/11/24 00:26:11;;;;;;;4.40;4.00;;;-2.70;99.90;;;;;;5013100;28;20962;-73
2021/11/24 00:28:36;;;;;;;5.67;3.67;;;-2.70;99.90;;;;;;5013013;28;20411;-73
2021/11/24 00:31:02;;;;;;;4.13;3.73;;;-2.70;99.90;;;;;;5013022;28;20719;-72
2021/11/24 00:33:28;;;;;;;5.13;3.60;;;-2.70;99.90;;;;;;5012743;28;20182;-72
2021/11/24 00:35:54;;;;;;;4.40;3.07;;;-2.80;99.90;;;;;;5013116;28;20183;-72
2021/11/24 00:38:20;;;;;;;4.93;3.73;;;-2.80;99.90;;;;;;5012787;28;20183;-72
2021/11/24 00:40:45;;;;;;;8.93;3.87;;;-2.80;99.90;;;;;;5012531;28;20392;-72
2021/11/24 00:43:11;;;;;;;4.90;4.40;;;-2.80;99.90;;;;;;5012496;28;20182;-72
2021/11/24 00:45:37;;;;;;;6.27;4.20;;;-2.80;99.90;;;;;;5012847;28;20721;-72
2021/11/24 00:48:04;;;;;;;4.50;3.93;;;-2.80;99.90;;;;;;5012600;28;20217;-72
2021/11/24 00:50:29;;;;;;;4.10;3.20;;;-2.90;99.90;;;;;;5012735;28;20199;-72
2021/11/24 00:52:55;;;;;;;5.37;3.70;;;-2.90;99.90;;;;;;5012240;28;20412;-72
2021/11/24 00:55:20;;;;;;;4.50;3.60;;;-2.90;99.90;;;;;;5012762;28;20730;-72
2021/11/24 00:57:46;;;;;;;3.83;3.53;;;-2.90;99.90;;;;;;5012360;28;20215;-72
2021/11/24 05:32:02;;;;;;;10.30;6.10;;;-3.90;99.90;;;;;;5360764;23;20499;-73
2021/11/24 05:34:28;;;;;;;9.43;6.40;;;-3.90;99.90;;;;;;4958677;28;20555;-69
2021/11/24 05:36:54;;;;;;;7.60;6.30;;;-4.00;99.90;;;;;;4952557;28;20383;-71
2021/11/24 05:39:19;;;;;;;10.50;5.77;;;-4.00;99.90;;;;;;4951879;28;20256;-74
2021/11/24 05:41:45;;;;;;;8.63;5.50;;;-3.90;99.90;;;;;;4952367;28;20247;-73
2021/11/24 05:44:25;;;;;;;9.17;6.40;;;-4.00;99.90;;;;;;4951791;28;20173;-73
2021/11/24 05:46:56;;;;;;;12.50;7.10;;;-4.00;99.90;;;;;;4952311;28;20212;-73
2021/11/24 05:49:22;;;;;;;7.53;6.30;;;-3.90;99.90;;;;;;4952208;28;20424;-73
2021/11/24 05:51:48;;;;;;;7.70;6.20;;;-4.00;99.90;;;;;;4952558;28;20443;-73
2021/11/24 05:54:14;;;;;;;11.70;5.67;;;-4.00;99.90;;;;;;4951553;28;20494;-73
2021/11/24 05:56:40;;;;;;;11.00;5.97;;;-4.00;99.90;;;;;;4952412;28;20435;-74
2021/11/24 05:59:07;;;;;;;12.80;6.80;;;-3.90;99.90;;;;;;4951717;28;20598;-74
2021/11/24 06:01:34;;;;;;;11.03;6.10;;;-4.00;99.90;;;;;;4952001;28;20321;-70
2021/11/24 06:04:00;;;;;;;8.07;6.03;;;-3.90;99.90;;;;;;4950514;28;20423;-73
2021/11/24 06:06:25;;;;;;;12.00;6.50;;;-4.00;99.90;;;;;;4952235;28;20387;-73
2021/11/24 06:08:51;;;;;;;14.30;7.17;;;-4.00;99.90;;;;;;4951810;28;20236;-74
2021/11/24 06:11:16;;;;;;;9.27;6.83;;;-4.00;99.90;;;;;;4952109;28;20637;-73
2021/11/24 06:13:42;;;;;;;8.37;6.33;;;-4.00;99.90;;;;;;4951472;28;20177;-73
2021/11/24 06:16:07;;;;;;;12.30;5.73;;;-4.00;99.90;;;;;;4952293;28;20713;-73
2021/11/24 06:18:33;;;;;;;8.27;6.23;;;-4.00;99.90;;;;;;4952057;28;20203;-70
2021/11/24 06:20:58;;;;;;;12.40;6.60;;;-4.10;99.90;;;;;;4951942;28;20689;-73
2021/11/24 06:23:24;;;;;;;8.63;5.90;;;-4.10;99.90;;;;;;4953077;28;20264;-73
2021/11/24 06:25:49;;;;;;;11.00;7.53;;;-4.10;99.90;;;;;;4952433;28;20276;-73
2021/11/24 06:28:15;;;;;;;13.83;6.80;;;-4.10;99.90;;;;;;4951704;28;20256;-73
2021/11/24 06:30:40;;;;;;;8.83;6.80;;;-4.10;99.90;;;;;;4952141;28;20532;-73
2021/11/24 06:33:06;;;;;;;8.57;6.23;;;-4.10;99.90;;;;;;4951324;28;20657;-73
2021/11/24 06:35:31;;;;;;;9.67;6.23;;;-4.00;99.90;;;;;;4951768;28;20211;-73
2021/11/24 06:37:57;;;;;;;8.10;6.30;;;-4.00;99.90;;;;;;4951740;28;20220;-73
2021/11/24 06:40:23;;;;;;;9.63;6.57;;;-4.00;99.90;;;;;;4954992;28;20188;-72
2021/11/24 06:42:49;;;;;;;12.27;7.27;;;-3.90;99.90;;;;;;4954070;28;20294;-72
2021/11/24 06:45:14;;;;;;;9.20;6.97;;;-3.70;99.90;;;;;;4954318;28;20754;-71
2021/11/24 06:47:41;;;;;;;18.03;8.00;;;-3.60;99.90;;;;;;4955387;28;20177;-73
2021/11/24 06:50:09;;;;;;;12.63;7.40;;;-3.60;99.90;;;;;;4955538;28;20173;-73
2021/11/24 06:52:34;;;;;;;14.77;8.37;;;-3.40;99.90;;;;;;4955058;28;20411;-73
2021/11/24 06:55:00;;;;;;;13.87;8.43;;;-3.30;99.90;;;;;;4954837;28;20438;-73
2021/11/24 06:57:25;;;;;;;12.00;8.13;;;-3.20;99.90;;;;;;4954991;28;20650;-72
2021/11/24 06:59:51;;;;;;;13.13;7.33;;;-3.10;99.90;;;;;;4955231;28;20540;-72
2021/11/24 07:02:16;;;;;;;15.20;9.00;;;-3.00;99.90;;;;;;4954980;28;20692;-73
2021/11/24 07:04:42;;;;;;;16.10;10.33;;;-2.90;99.90;;;;;;4954568;28;20733;-72
2021/11/24 07:07:07;;;;;;;24.97;10.60;;;-2.70;99.90;;;;;;4955174;28;20217;-72
2021/11/24 07:09:33;;;;;;;23.03;12.93;;;-2.60;99.90;;;;;;4954526;28;20188;-69
2021/11/24 07:11:58;;;;;;;21.83;10.67;;;-2.40;99.90;;;;;;4955215;28;20222;-72
2021/11/24 07:14:24;;;;;;;22.97;12.40;;;-2.30;99.90;;;;;;4954247;28;20677;-73
2021/11/24 07:16:49;;;;;;;28.07;14.23;;;-2.30;99.90;;;;;;4954751;28;20188;-72
2021/11/24 07:19:16;;;;;;;29.23;14.40;;;-2.00;99.90;;;;;;4954472;28;20255;-71
2021/11/24 07:21:47;;;;;;;26.83;13.23;;;-1.80;99.90;;;;;;4955084;28;20678;-72
2021/11/24 07:24:14;;;;;;;26.40;13.17;;;-1.70;99.90;;;;;;4953980;28;20494;-70
2021/11/24 07:26:40;;;;;;;20.63;12.27;;;-1.50;99.90;;;;;;4954684;28;20428;-72
2021/11/24 07:29:05;;;;;;;29.07;13.50;;;-1.40;99.90;;;;;;4954923;28;20393;-72
2021/11/24 07:31:30;;;;;;;30.23;15.93;;;-1.30;99.90;;;;;;4954643;28;20695;-72
2021/11/24 07:33:56;;;;;;;33.90;15.50;;;-1.20;99.90;;;;;;4954057;28;20177;-71
2021/11/24 07:36:21;;;;;;;32.20;15.67;;;-1.00;99.90;;;;;;4954152;28;20186;-72
2021/11/24 07:38:47;;;;;;;31.43;17.00;;;-1.00;99.90;;;;;;4954684;28;20202;-73
2021/11/24 07:41:13;;;;;;;37.50;15.90;;;-0.90;99.90;;;;;;4954422;28;20214;-73
2021/11/24 07:43:38;;;;;;;32.70;14.97;;;-0.80;99.90;;;;;;4953581;28;20283;-72
2021/11/24 07:46:04;;;;;;;42.73;15.83;;;-0.70;99.90;;;;;;4954543;28;20185;-71
2021/11/24 07:48:29;;;;;;;28.50;16.20;;;-0.60;99.90;;;;;;4954496;28;20185;-72
2021/11/24 07:50:55;;;;;;;29.70;14.70;;;-0.60;99.90;;;;;;4953309;28;20273;-71
2021/11/24 07:53:20;;;;;;;29.00;15.47;;;-0.40;99.90;;;;;;4953725;28;20183;-72
2021/11/24 07:55:46;;;;;;;39.20;15.40;;;-0.40;99.90;;;;;;4952327;28;20212;-72
2021/11/24 07:58:13;;;;;;;26.83;16.03;;;-0.30;99.90;;;;;;4953670;28;20189;-69
2021/11/24 08:00:39;;;;;;;32.73;16.03;;;-0.20;99.90;;;;;;4945675;28;20236;-72
2021/11/24 08:03:05;;;;;;;30.80;16.20;;;-0.10;99.90;;;;;;4941535;28;20402;-71
2021/11/24 08:05:30;;;;;;;27.80;14.87;;;-0.10;99.90;;;;;;4935182;29;20247;-72
2021/11/24 08:07:56;;;;;;;27.93;14.50;;;-0.10;99.90;;;;;;4934344;29;20260;-72
2021/11/24 08:10:23;;;;;;;30.93;16.40;;;0.00;99.90;;;;;;4934082;29;20557;-72
2021/11/24 08:12:49;;;;;;;34.80;14.97;;;0.10;99.90;;;;;;4932501;29;20253;-72
2021/11/24 08:15:14;;;;;;;30.93;15.20;;;0.20;99.90;;;;;;4933031;29;20472;-72
2021/11/24 08:17:40;;;;;;;32.57;16.90;;;0.20;99.90;;;;;;4934830;29;20561;-73
2021/11/24 08:20:07;;;;;;;27.50;15.93;;;0.30;99.90;;;;;;4933812;29;20211;-72
2021/11/24 08:22:33;;;;;;;28.33;16.10;;;0.30;99.90;;;;;;4932732;29;20284;-71
2021/11/24 08:24:58;;;;;;;37.30;17.03;;;0.30;99.90;;;;;;4932358;29;20476;-71
2021/11/24 08:27:24;;;;;;;25.03;15.20;;;0.40;99.90;;;;;;4934007;29;20616;-70
2021/11/24 08:29:50;;;;;;;26.80;14.90;;;0.50;99.90;;;;;;4933449;29;20275;-71
2021/11/24 08:32:15;;;;;;;27.77;14.37;;;0.60;99.90;;;;;;4934208;29;20714;-70
2021/11/24 08:34:41;;;;;;;28.23;13.53;;;0.70;99.90;;;;;;4933453;29;20216;-71
2021/11/24 08:37:07;;;;;;;22.57;14.00;;;0.80;99.90;;;;;;4934602;29;20554;-72
2021/11/24 08:39:32;;;;;;;30.20;15.67;;;0.90;99.90;;;;;;4934309;29;20411;-73
2021/11/24 08:41:58;;;;;;;26.30;14.13;;;1.00;99.90;;;;;;4934590;29;20220;-72
2021/11/24 08:44:24;;;;;;;23.60;13.50;;;1.00;99.90;;;;;;4931947;29;20614;-72
2021/11/24 08:46:50;;;;;;;28.43;14.50;;;1.00;99.90;;;;;;4934580;29;20417;-72
2021/11/24 08:49:16;;;;;;;26.40;14.67;;;1.10;99.90;;;;;;4933790;29;20214;-72
2021/11/24 08:51:42;;;;;;;27.97;14.60;;;1.10;99.90;;;;;;4934389;29;20205;-72
2021/11/24 08:54:10;;;;;;;23.17;13.83;;;1.10;99.90;;;;;;4932015;29;20198;-73
2021/11/24 08:56:36;;;;;;;26.73;14.87;;;1.20;99.90;;;;;;4933790;29;20804;-73
2021/11/24 08:59:05;;;;;;;27.97;15.80;;;1.30;99.90;;;;;;4933861;29;20413;-72
2021/11/24 09:01:32;;;;;;;27.67;14.67;;;1.40;99.90;;;;;;4933952;29;20919;-71
2021/11/24 09:03:57;;;;;;;28.37;14.80;;;1.50;99.90;;;;;;4933570;29;20934;-71
2021/11/24 09:06:23;;;;;;;24.77;15.03;;;1.50;99.90;;;;;;4933437;29;20388;-72
2021/11/24 09:08:48;;;;;;;23.73;15.90;;;1.50;99.90;;;;;;4933930;29;20710;-72
2021/11/24 09:11:14;;;;;;;24.10;13.77;;;1.50;99.90;;;;;;4933621;29;20269;-70
2021/11/24 09:13:39;;;;;;;32.40;14.80;;;1.50;99.90;;;;;;4932011;29;20183;-72
2021/11/24 09:16:05;;;;;;;32.43;14.50;;;1.60;99.90;;;;;;4933730;29;20586;-71
2021/11/24 09:18:30;;;;;;;27.20;13.17;;;1.70;99.90;;;;;;4933341;29;20178;-73
2021/11/24 09:20:56;;;;;;;23.80;15.37;;;1.70;99.90;;;;;;4933725;29;20198;-70
2021/11/24 09:23:22;;;;;;;24.20;14.73;;;1.80;99.90;;;;;;4933021;29;20201;-72
2021/11/24 09:26:00;;;;;;;24.73;14.83;;;1.90;99.90;;;;;;4933589;29;20173;-72
2021/11/24 09:28:30;;;;;;;32.57;15.53;;;2.00;99.90;;;;;;4933049;29;20395;-73
2021/11/24 09:30:56;;;;;;;23.80;14.43;;;2.10;99.90;;;;;;4933329;29;20493;-71
2021/11/24 09:33:22;;;;;;;23.67;14.30;;;2.20;99.90;;;;;;4932743;29;20450;-71
2021/11/24 09:35:48;;;;;;;19.93;13.00;;;2.40;99.90;;;;;;4933469;29;20527;-72
2021/11/24 09:38:14;;;;;;;21.83;13.87;;;2.60;99.90;;;;;;4933178;29;20426;-68
2021/11/24 09:40:40;;;;;;;20.77;12.37;;;2.90;99.90;;;;;;4933612;29;20504;-71
2021/11/24 09:43:08;;;;;;;20.33;12.40;;;3.10;99.90;;;;;;4932009;29;20173;-72
2021/11/24 09:45:35;;;;;;;20.33;12.20;;;3.50;99.90;;;;;;4933335;29;20762;-70
2021/11/24 09:48:01;;;;;;;18.57;11.17;;;3.70;99.90;;;;;;4933421;29;20766;-72
2021/11/24 09:50:30;;;;;;;16.30;12.20;;;3.70;99.90;;;;;;4933653;29;20420;-72
2021/11/24 09:52:57;;;;;;;19.97;12.43;;;3.70;99.90;;;;;;4932429;29;20395;-72
2021/11/24 09:55:25;;;;;;;18.30;11.60;;;3.60;99.90;;;;;;4932657;29;20467;-72
2021/11/24 09:57:52;;;;;;;17.43;11.50;;;3.90;99.90;;;;;;4932963;29;20424;-71
2021/11/24 10:00:18;;;;;;;21.07;12.93;;;4.10;99.90;;;;;;4933288;29;20413;-71
2021/11/24 10:02:44;;;;;;;16.87;11.90;;;4.30;99.90;;;;;;4932030;29;20409;-69
2021/11/24 10:05:10;;;;;;;23.70;12.00;;;4.50;99.90;;;;;;4932968;29;20399;-72
2021/11/24 10:07:37;;;;;;;17.73;12.50;;;4.60;99.90;;;;;;4933014;29;20190;-71
2021/11/24 10:10:03;;;;;;;16.47;11.47;;;4.70;99.90;;;;;;4931917;29;20399;-71
2021/11/24 10:12:29;;;;;;;19.60;10.97;;;4.60;99.90;;;;;;4932133;29;20930;-72
2021/11/24 10:14:54;;;;;;;16.93;11.27;;;4.60;99.90;;;;;;4935712;29;20468;-71
2021/11/24 10:17:25;;;;;;;18.47;10.63;;;4.70;99.90;;;;;;4936641;29;20181;-72
2021/11/24 10:20:03;;;;;;;16.77;11.43;;;4.70;99.90;;;;;;4936921;29;20180;-70
2021/11/24 10:22:29;;;;;;;15.80;10.83;;;4.90;99.90;;;;;;4936966;29;20975;-73
2021/11/24 10:25:07;;;;;;;15.40;11.00;;;4.80;99.90;;;;;;4936292;29;20389;-71
2021/11/24 10:27:39;;;;;;;21.77;13.27;;;4.60;99.90;;;;;;4936939;29;20429;-71
2021/11/24 10:30:06;;;;;;;21.50;12.30;;;4.30;99.90;;;;;;4936635;29;20928;-73
2021/11/24 10:32:31;;;;;;;20.73;12.23;;;4.20;99.90;;;;;;4936156;29;20465;-72
2021/11/24 10:34:58;;;;;;;17.17;11.33;;;4.00;99.90;;;;;;4935940;29;20442;-72
2021/11/24 10:37:24;;;;;;;22.77;11.93;;;4.00;99.90;;;;;;4936693;29;20270;-70
2021/11/24 10:40:04;;;;;;;18.60;11.70;;;3.90;99.90;;;;;;4936559;29;20421;-70
2021/11/24 10:42:36;;;;;;;16.40;10.93;;;3.90;99.90;;;;;;4936665;29;20414;-72
2021/11/24 10:45:15;;;;;;;17.47;11.07;;;4.00;99.90;;;;;;4935990;29;20783;-73
2021/11/24 10:47:54;;;;;;;18.47;11.83;;;4.20;99.90;;;;;;4936121;29;20391;-71
2021/11/24 10:50:28;;;;;;;18.93;12.17;;;4.10;99.90;;;;;;4936173;28;20760;-72
2021/11/24 10:52:54;;;;;;;21.60;11.40;;;4.10;99.90;;;;;;4954338;28;20436;-70
2021/11/24 10:55:25;;;;;;;18.37;11.77;;;4.20;99.90;;;;;;4955363;28;20441;-71
2021/11/24 10:58:04;;;;;;;19.67;12.30;;;4.30;99.90;;;;;;4955408;28;20847;-71
2021/11/24 11:00:33;;;;;;;19.60;10.57;;;4.30;99.90;;;;;;4954995;28;20398;-68
2021/11/24 11:02:58;;;;;;;20.30;12.77;;;4.40;99.90;;;;;;4954532;28;20828;-71
2021/11/24 11:05:25;;;;;;;15.40;11.13;;;4.30;99.90;;;;;;4954144;29;20522;-71
2021/11/24 11:07:51;;;;;;;18.27;10.70;;;4.40;99.90;;;;;;4955093;28;20224;-70
2021/11/24 11:10:37;;;;;;;14.90;10.87;;;4.30;99.90;;;;;;4954726;28;20420;-70
2021/11/24 11:13:06;;;;;;;14.70;10.70;;;4.10;99.90;;;;;;4954271;28;20310;-73
2021/11/24 11:15:47;;;;;;;14.57;10.10;;;4.10;99.90;;;;;;4953942;28;20550;-71
2021/11/24 11:18:19;;;;;;;18.60;11.50;;;4.20;99.90;;;;;;4954210;28;20433;-70
2021/11/24 11:21:05;;;;;;;18.30;11.43;;;4.40;99.90;;;;;;4954098;28;20938;-72
2021/11/24 11:23:33;;;;;;;16.50;11.10;;;4.60;99.90;;;;;;4954169;28;20855;-72
2021/11/24 11:26:00;;;;;;;17.67;11.40;;;4.80;99.90;;;;;;4954514;28;20428;-71
2021/11/24 11:28:29;;;;;;;19.40;12.50;;;4.90;99.90;;;;;;4954623;28;20508;-72
2021/11/24 11:30:56;;;;;;;19.90;11.20;;;4.90;99.90;;;;;;4954582;28;20819;-70
2021/11/24 11:33:31;;;;;;;20.20;10.93;;;5.00;99.90;;;;;;4952760;28;20447;-71
2021/11/24 11:36:00;;;;;;;17.10;10.40;;;5.30;99.90;;;;;;4954570;28;20441;-71
2021/11/24 11:38:26;;;;;;;19.33;11.57;;;5.30;99.90;;;;;;4953489;29;20431;-71
2021/11/24 11:40:53;;;;;;;21.83;11.37;;;5.40;99.90;;;;;;4953914;28;20413;-71
2021/11/24 11:43:24;;;;;;;13.90;11.03;;;5.30;99.90;;;;;;4953388;28;20174;-71
2021/11/24 11:45:51;;;;;;;19.53;12.20;;;5.30;99.90;;;;;;4954208;28;20395;-71
2021/11/24 11:48:30;;;;;;;20.93;13.37;;;5.40;99.90;;;;;;4954036;28;20422;-71
2021/11/24 11:51:04;;;;;;;19.00;12.63;;;5.50;99.90;;;;;;4954306;28;20437;-71
2021/11/24 11:53:30;;;;;;;20.40;12.23;;;5.40;99.90;;;;;;4953509;28;20420;-71
2021/11/24 11:56:13;;;;;;;28.27;13.10;;;5.30;99.90;;;;;;4954175;28;20465;-71
2021/11/24 11:58:44;;;;;;;19.77;13.53;;;5.20;99.90;;;;;;4954289;28;20181;-72
2021/11/24 12:01:18;;;;;;;20.93;12.07;;;5.30;99.90;;;;;;4954131;28;20413;-72
2021/11/24 12:04:03;;;;;;;19.70;10.70;;;5.40;99.90;;;;;;4952092;28;20384;-71
2021/11/24 12:06:32;;;;;;;16.50;11.63;;;5.20;99.90;;;;;;4954339;28;20426;-72
2021/11/24 12:09:07;;;;;;;17.60;11.47;;;5.10;99.90;;;;;;4953871;28;20434;-72
2021/11/24 12:12:01;;;;;;;17.83;11.50;;;5.20;99.90;;;;;;4952271;28;20448;-76
2021/11/24 12:14:45;;;;;;;18.10;11.60;;;5.10;99.90;;;;;;4953217;28;20530;-71
2021/11/24 12:17:32;;;;;;;17.17;12.23;;;4.80;99.90;;;;;;4953897;28;20493;-72
2021/11/24 12:20:10;;;;;;;18.27;12.23;;;4.90;99.90;;;;;;4953798;28;20818;-72
2021/11/24 12:22:45;;;;;;;14.63;10.20;;;4.80;99.90;;;;;;4952518;28;20498;-72
2021/11/24 12:27:57;;;;;;;19.10;11.10;;;5.00;99.90;;;;;;4952656;28;20779;-72
2021/11/24 12:30:35;;;;;;;18.33;11.40;;;4.90;99.90;;;;;;4953927;28;20392;-72
2021/11/24 12:33:17;;;;;;;15.10;10.07;;;5.00;99.90;;;;;;4952973;28;20548;-72
2021/11/24 12:35:53;;;;;;;16.03;11.13;;;5.00;99.90;;;;;;4953899;28;20452;-71
2021/11/24 12:38:21;;;;;;;17.13;10.37;;;5.00;99.90;;;;;;4952214;28;20401;-69
2021/11/24 12:40:49;;;;;;;17.73;11.63;;;5.10;99.90;;;;;;4953704;28;20769;-72
2021/11/24 12:43:18;;;;;;;21.70;11.67;;;5.10;99.90;;;;;;4952498;28;20470;-71
2021/11/24 12:46:23;;;;;;;21.07;11.23;;;5.00;99.90;;;;;;4953451;28;20419;-72
2021/11/24 12:49:01;;;;;;;19.27;11.63;;;5.00;99.90;;;;;;4953182;28;20422;-72
2021/11/24 12:51:30;;;;;;;19.80;11.57;;;5.00;99.90;;;;;;4953644;28;20784;-72
2021/11/24 12:54:02;;;;;;;14.23;10.67;;;5.00;99.90;;;;;;4952169;28;20967;-71
2021/11/24 12:56:31;;;;;;;15.30;11.27;;;5.00;99.90;;;;;;4953351;28;20440;-72
2021/11/24 12:58:59;;;;;;;19.10;9.97;;;5.00;99.90;;;;;;4953309;28;20398;-72
2021/11/24 13:01:36;;;;;;;14.93;9.50;;;5.00;99.90;;;;;;4952911;28;21034;-72
2021/11/24 13:04:08;;;;;;;17.80;10.47;;;5.00;99.90;;;;;;4952058;28;20932;-72
2021/11/24 13:06:37;;;;;;;14.50;10.17;;;4.90;99.90;;;;;;4952978;28;20456;-69
2021/11/24 13:09:19;;;;;;;17.00;10.97;;;5.00;99.90;;;;;;4952993;28;20923;-72
2021/11/24 13:11:49;;;;;;;18.60;10.93;;;5.00;99.90;;;;;;4953050;28;20415;-72
2021/11/24 13:14:21;;;;;;;17.77;10.87;;;4.90;99.90;;;;;;4952159;28;20408;-72
2021/11/24 13:17:10;;;;;;;18.37;11.70;;;4.80;99.90;;;;;;4952621;28;20951;-72
2021/11/24 13:19:42;;;;;;;15.50;10.37;;;4.80;99.90;;;;;;4951360;28;20441;-72
2021/11/24 13:22:09;;;;;;;17.10;10.50;;;4.80;99.90;;;;;;4952702;28;20453;-72
2021/11/24 13:24:36;;;;;;;18.20;11.23;;;4.70;99.90;;;;;;4952102;28;20448;-70
2021/11/24 13:27:02;;;;;;;17.53;11.07;;;4.70;99.90;;;;;;4952732;28;20417;-72
2021/11/24 13:29:29;;;;;;;26.43;12.60;;;4.70;99.90;;;;;;4953303;28;20854;-73
2021/11/24 13:32:14;;;;;;;15.97;10.53;;;4.60;99.90;;;;;;4952750;28;20351;-71
2021/11/24 13:34:41;;;;;;;19.10;11.30;;;4.50;99.90;;;;;;4952100;28;20459;-72
2021/11/24 13:37:07;;;;;;;19.37;11.30;;;4.50;99.90;;;;;;4952462;28;20860;-72
2021/11/24 13:39:34;;;;;;;22.57;12.40;;;4.60;99.90;;;;;;4951920;28;20633;-72
2021/11/24 13:42:26;;;;;;;20.47;12.40;;;4.60;99.90;;;;;;4952733;28;20481;-72
2021/11/24 13:44:56;;;;;;;18.83;11.20;;;4.60;99.90;;;;;;4949844;29;20409;-72
2021/11/24 13:47:29;;;;;;;20.20;14.38;;;4.70;99.90;;;;;;4951040;28;20414;-72
2021/11/24 13:49:59;;;;;;;17.30;12.57;;;4.70;99.90;;;;;;4951233;28;20646;-71
2021/11/24 13:52:30;;;;;;;20.40;13.43;;;4.70;99.90;;;;;;4952250;28;20443;-72
2021/11/24 13:54:58;;;;;;;17.90;11.23;;;4.70;99.90;;;;;;4951511;28;20465;-72
2021/11/24 13:57:29;;;;;;;19.07;11.77;;;4.60;99.90;;;;;;4952218;28;20500;-72
2021/11/24 14:00:07;;;;;;;28.07;13.40;;;4.50;99.90;;;;;;4951944;28;20445;-70
2021/11/24 14:02:33;;;;;;;21.97;14.00;;;4.50;99.90;;;;;;4951624;28;20452;-72
2021/11/24 14:05:06;;;;;;;22.00;12.97;;;4.50;99.90;;;;;;4952530;28;20422;-73
2021/11/24 14:07:38;;;;;;;28.13;12.50;;;4.50;99.90;;;;;;4952559;29;20419;-72
2021/11/24 14:10:22;;;;;;;16.33;11.60;;;4.40;99.90;;;;;;4952224;28;20394;-73
2021/11/24 14:12:48;;;;;;;22.50;13.77;;;4.40;99.90;;;;;;4950989;28;20465;-72
2021/11/24 14:15:15;;;;;;;17.83;12.57;;;4.50;99.90;;;;;;4951935;28;20464;-71
2021/11/24 14:17:50;;;;;;;20.50;14.00;;;4.40;99.90;;;;;;4952020;28;20394;-73
2021/11/24 14:20:18;;;;;;;25.53;13.83;;;4.30;99.90;;;;;;4951488;28;20412;-73
2021/11/24 14:22:52;;;;;;;24.80;14.70;;;4.30;99.90;;;;;;4951538;28;20460;-70
2021/11/24 14:25:20;;;;;;;22.10;14.07;;;4.20;99.90;;;;;;4952010;28;20417;-72
2021/11/24 14:27:48;;;;;;;25.70;14.83;;;4.00;99.90;;;;;;4949663;28;20423;-73
2021/11/24 14:30:16;;;;;;;24.17;13.47;;;4.00;99.90;;;;;;4951065;28;20506;-71
2021/11/24 14:32:44;;;;;;;25.13;13.87;;;3.90;99.90;;;;;;4950866;28;20467;-72
2021/11/24 14:35:13;;;;;;;24.70;13.73;;;3.80;99.90;;;;;;4949720;28;20485;-72
2021/11/24 14:37:39;;;;;;;26.50;13.50;;;3.70;99.90;;;;;;4951257;28;20485;-72
2021/11/24 14:40:05;;;;;;;22.97;14.10;;;3.60;99.90;;;;;;4950499;28;20448;-73
2021/11/24 14:42:31;;;;;;;29.20;16.17;;;3.50;99.90;;;;;;4952095;28;20408;-73
2021/11/24 14:44:57;;;;;;;21.63;13.03;;;3.40;99.90;;;;;;4947412;28;20522;-72
2021/11/24 14:47:25;;;;;;;24.63;14.13;;;3.30;99.90;;;;;;4951852;28;20228;-73
2021/11/24 14:49:51;;;;;;;20.50;13.03;;;3.30;99.90;;;;;;4951769;28;20507;-73
2021/11/24 14:52:17;;;;;;;21.80;13.73;;;3.30;99.90;;;;;;4951059;28;20425;-73
2021/11/24 14:54:43;;;;;;;33.50;15.07;;;3.10;99.90;;;;;;4951006;28;20442;-73
2021/11/24 14:57:10;;;;;;;23.33;13.53;;;3.10;99.90;;;;;;4951804;28;20177;-72
2021/11/24 14:59:37;;;;;;;24.10;13.97;;;3.00;99.90;;;;;;4951640;28;20401;-72
2021/11/24 15:02:03;;;;;;;22.90;13.50;;;3.00;99.90;;;;;;4955635;28;20519;-72
2021/11/24 15:04:29;;;;;;;25.17;13.20;;;2.90;99.90;;;;;;4953929;28;20420;-73
2021/11/24 15:06:54;;;;;;;25.37;14.60;;;2.80;99.90;;;;;;4955239;28;20427;-72
2021/11/24 15:09:20;;;;;;;32.33;14.80;;;2.80;99.90;;;;;;4954657;28;20193;-73
2021/11/24 15:11:46;;;;;;;30.73;14.70;;;2.70;99.90;;;;;;4954616;28;20199;-71
2021/11/24 15:14:12;;;;;;;26.97;14.33;;;2.70;99.90;;;;;;4954235;28;20648;-73
2021/11/24 15:16:37;;;;;;;30.10;16.50;;;2.60;99.90;;;;;;4954909;28;20175;-71
2021/11/24 15:19:06;;;;;;;27.88;18.00;;;2.60;99.90;;;;;;4953666;28;20482;-72
2021/11/24 15:21:31;;;;;;;27.43;16.13;;;2.50;99.90;;;;;;4954735;28;20242;-72
2021/11/24 15:23:57;;;;;;;25.70;14.73;;;2.40;99.90;;;;;;4953968;28;20415;-71
2021/11/24 15:26:23;;;;;;;25.33;15.47;;;2.40;99.90;;;;;;4954426;28;20180;-71
2021/11/24 15:28:49;;;;;;;31.60;14.57;;;2.30;99.90;;;;;;4954624;28;20174;-71
2021/11/24 15:31:14;;;;;;;28.50;15.57;;;2.30;99.90;;;;;;4954477;28;20579;-70
2021/11/24 15:33:40;;;;;;;28.80;15.67;;;2.20;99.90;;;;;;4954015;28;20196;-71
2021/11/24 15:36:06;;;;;;;25.07;13.50;;;2.10;99.90;;;;;;4954845;28;20205;-72
2021/11/24 15:38:33;;;;;;;27.20;14.43;;;2.10;99.90;;;;;;4954082;28;20547;-72
2021/11/24 15:40:59;;;;;;;32.63;14.50;;;2.00;99.90;;;;;;4954579;28;20472;-72
2021/11/24 15:43:28;;;;;;;28.73;13.83;;;2.00;99.90;;;;;;4953549;28;20456;-71
2021/11/24 15:45:55;;;;;;;26.37;12.87;;;1.90;99.90;;;;;;4954569;28;20402;-68
2021/11/24 15:48:25;;;;;;;28.67;14.10;;;1.80;99.90;;;;;;4953582;28;20407;-71
2021/11/24 15:50:52;;;;;;;31.15;16.00;;;1.80;99.90;;;;;;4953837;28;20413;-72
2021/11/24 15:53:17;;;;;;;29.52;16.60;;;1.70;99.90;;;;;;4951834;28;20424;-72
2021/11/24 15:55:43;;;;;;;22.87;12.83;;;1.60;99.90;;;;;;4952908;28;20291;-72
2021/11/24 15:58:08;;;;;;;25.33;13.27;;;1.60;99.90;;;;;;4953508;28;20180;-73
2021/11/24 16:00:34;;;;;;;33.00;16.53;;;1.60;99.90;;;;;;4953357;28;20255;-71
2021/11/24 16:03:00;;;;;;;27.83;14.27;;;1.60;99.90;;;;;;4954300;28;20187;-73
2021/11/24 16:05:26;;;;;;;31.97;14.70;;;1.50;99.90;;;;;;4953992;28;20674;-73
2021/11/24 16:07:52;;;;;;;28.63;13.80;;;1.50;99.90;;;;;;4954283;28;20488;-73
2021/11/24 16:10:17;;;;;;;31.57;14.73;;;1.50;99.90;;;;;;4953325;28;20261;-72
2021/11/24 16:12:43;;;;;;;28.30;13.23;;;1.50;99.90;;;;;;4953163;28;20965;-71
2021/11/24 16:15:09;;;;;;;32.70;17.73;;;1.50;99.90;;;;;;4953587;28;20213;-72
2021/11/24 16:17:34;;;;;;;32.47;16.03;;;1.50;99.90;;;;;;4953922;28;20199;-71
2021/11/24 16:20:00;;;;;;;30.20;14.83;;;1.60;99.90;;;;;;4953731;28;20667;-72
2021/11/24 16:22:25;;;;;;;28.30;15.03;;;1.60;99.90;;;;;;4947469;28;20576;-72
2021/11/24 16:24:52;;;;;;;27.77;13.17;;;1.60;99.90;;;;;;4952485;28;20224;-72
2021/11/24 16:27:19;;;;;;;24.30;14.10;;;1.60;99.90;;;;;;4953061;28;20212;-73
2021/11/24 16:29:55;;;;;;;23.40;12.50;;;1.60;99.90;;;;;;4952413;28;20472;-72
2021/11/24 16:32:20;;;;;;;25.93;14.30;;;1.60;99.90;;;;;;4948977;28;20478;-72
2021/11/24 16:34:46;;;;;;;28.13;14.73;;;1.60;99.90;;;;;;4943888;28;20486;-72
2021/11/24 16:37:12;;;;;;;23.90;13.00;;;1.60;99.90;;;;;;4952969;28;20212;-72
2021/11/24 16:39:37;;;;;;;24.43;14.13;;;1.60;99.90;;;;;;4952784;28;20252;-72
2021/11/24 16:42:03;;;;;;;21.20;12.80;;;1.70;99.90;;;;;;4952573;28;20283;-72
2021/11/24 16:44:28;;;;;;;27.47;12.80;;;1.60;99.90;;;;;;4939579;28;20228;-73
2021/11/24 16:46:54;;;;;;;20.80;12.93;;;1.60;99.90;;;;;;4953296;28;20271;-73
2021/11/24 16:49:20;;;;;;;27.77;13.63;;;1.60;99.90;;;;;;4952279;28;20729;-72
2021/11/24 16:51:45;;;;;;;30.03;13.93;;;1.60;99.90;;;;;;4953136;28;20212;-71
2021/11/24 16:54:11;;;;;;;23.50;13.80;;;1.70;99.90;;;;;;4947291;28;20306;-72
2021/11/24 16:56:36;;;;;;;30.67;13.77;;;1.70;99.90;;;;;;4945076;29;20221;-73
2021/11/24 16:59:03;;;;;;;25.33;13.47;;;1.70;99.90;;;;;;4951985;28;20224;-71
2021/11/24 17:01:28;;;;;;;31.90;13.07;;;1.70;99.90;;;;;;4948654;28;20211;-72
2021/11/24 17:03:54;;;;;;;29.70;14.50;;;1.80;99.90;;;;;;4938707;28;20448;-73
2021/11/24 17:06:19;;;;;;;29.97;15.63;;;1.80;99.90;;;;;;4940429;28;20644;-71
2021/11/24 17:08:45;;;;;;;32.07;16.50;;;1.80;99.90;;;;;;4952473;28;20224;-72
2021/11/24 17:11:10;;;;;;;32.87;17.27;;;1.80;99.90;;;;;;4951864;28;20985;-73
2021/11/24 17:13:36;;;;;;;33.17;15.80;;;1.90;99.90;;;;;;4951270;28;20229;-72
2021/11/24 17:16:02;;;;;;;32.33;16.50;;;1.90;99.90;;;;;;4946392;28;20247;-73
2021/11/24 17:18:27;;;;;;;36.87;16.47;;;1.90;99.90;;;;;;4946270;28;20244;-72